sensor_id;sensor_type;location;lat;lon;timestamp;P1;durP1;ratioP1;P2;durP2;ratioP2
28920;SDS011;16035;53.594;9.952;2024-03-02T00:01:24;19.10;;;12.17;;
28920;SDS011;16035;53.594;9.952;2024-03-02T00:03:24;25.10;;;11.93;;
28920;SDS011;16035;53.594;9.952;2024-03-02T00:05:25;20.17;;;11.60;;
28920;SDS011;16035;53.594;9.952;2024-03-02T00:07:25;21.63;;;11.73;;
28920;SDS011;16035;53.594;9.952;2024-03-02T00:09:25;17.67;;;11.03;;
28920;SDS011;16035;53.594;9.952;2024-03-02T00:11:26;21.03;;;11.93;;
28920;SDS011;16035;53.594;9.952;2024-03-02T00:17:39;17.15;;;11.20;;
28920;SDS011;16035;53.594;9.952;2024-03-02T00:19:40;20.27;;;11.80;;
28920;SDS011;16035;53.594;9.952;2024-03-02T00:21:40;24.87;;;12.10;;
28920;SDS011;16035;53.594;9.952;2024-03-02T00:23:40;20.93;;;12.00;;
28920;SDS011;16035;53.594;9.952;2024-03-02T00:25:43;23.60;;;12.90;;
28920;SDS011;16035;53.594;9.952;2024-03-02T00:27:49;19.02;;;11.80;;
28920;SDS011;16035;53.594;9.952;2024-03-02T00:29:50;20.97;;;12.00;;
28920;SDS011;16035;53.594;9.952;2024-03-02T00:31:50;25.07;;;13.20;;
28920;SDS011;16035;53.594;9.952;2024-03-02T00:33:50;22.13;;;11.37;;
28920;SDS011;16035;53.594;9.952;2024-03-02T00:35:51;21.27;;;12.20;;
28920;SDS011;16035;53.594;9.952;2024-03-02T00:37:52;22.65;;;12.93;;
28920;SDS011;16035;53.594;9.952;2024-03-02T00:39:52;24.33;;;13.37;;
28920;SDS011;16035;53.594;9.952;2024-03-02T00:41:52;20.53;;;11.23;;
28920;SDS011;16035;53.594;9.952;2024-03-02T00:43:59;19.50;;;11.50;;
28920;SDS011;16035;53.594;9.952;2024-03-02T00:46:01;19.30;;;11.23;;
28920;SDS011;16035;53.594;9.952;2024-03-02T00:48:01;23.77;;;11.77;;
28920;SDS011;16035;53.594;9.952;2024-03-02T00:50:02;20.07;;;12.53;;
28920;SDS011;16035;53.594;9.952;2024-03-02T00:52:03;19.80;;;11.32;;
28920;SDS011;16035;53.594;9.952;2024-03-02T00:54:08;21.80;;;11.93;;
28920;SDS011;16035;53.594;9.952;2024-03-02T00:56:09;20.05;;;11.98;;
28920;SDS011;16035;53.594;9.952;2024-03-02T00:58:11;24.33;;;13.07;;
28920;SDS011;16035;53.594;9.952;2024-03-02T01:00:12;20.67;;;12.47;;
28920;SDS011;16035;53.594;9.952;2024-03-02T01:02:15;24.45;;;12.63;;
28920;SDS011;16035;53.594;9.952;2024-03-02T01:04:15;21.10;;;12.13;;
28920;SDS011;16035;53.594;9.952;2024-03-02T01:06:16;22.13;;;12.57;;
28920;SDS011;16035;53.594;9.952;2024-03-02T01:08:17;24.80;;;13.68;;
28920;SDS011;16035;53.594;9.952;2024-03-02T01:10:17;21.83;;;12.60;;
28920;SDS011;16035;53.594;9.952;2024-03-02T01:12:17;23.33;;;13.23;;
28920;SDS011;16035;53.594;9.952;2024-03-02T01:14:18;22.13;;;13.33;;
28920;SDS011;16035;53.594;9.952;2024-03-02T01:16:18;25.07;;;13.73;;
28920;SDS011;16035;53.594;9.952;2024-03-02T01:18:18;28.87;;;13.37;;
28920;SDS011;16035;53.594;9.952;2024-03-02T01:20:19;24.60;;;13.27;;
28920;SDS011;16035;53.594;9.952;2024-03-02T01:22:20;29.67;;;14.67;;
28920;SDS011;16035;53.594;9.952;2024-03-02T01:24:25;28.08;;;15.90;;
28920;SDS011;16035;53.594;9.952;2024-03-02T01:26:25;28.47;;;15.27;;
28920;SDS011;16035;53.594;9.952;2024-03-02T01:28:25;28.20;;;14.33;;
28920;SDS011;16035;53.594;9.952;2024-03-02T01:30:26;30.07;;;15.00;;
28920;SDS011;16035;53.594;9.952;2024-03-02T01:32:26;30.67;;;16.50;;
28920;SDS011;16035;53.594;9.952;2024-03-02T01:34:26;33.40;;;17.67;;
28920;SDS011;16035;53.594;9.952;2024-03-02T01:36:27;33.43;;;16.50;;
28920;SDS011;16035;53.594;9.952;2024-03-02T01:38:27;30.83;;;17.63;;
28920;SDS011;16035;53.594;9.952;2024-03-02T01:40:28;30.50;;;17.10;;
28920;SDS011;16035;53.594;9.952;2024-03-02T01:42:29;34.07;;;18.00;;
28920;SDS011;16035;53.594;9.952;2024-03-02T01:44:30;32.83;;;17.92;;
28920;SDS011;16035;53.594;9.952;2024-03-02T01:46:31;32.93;;;17.63;;
28920;SDS011;16035;53.594;9.952;2024-03-02T01:48:31;32.50;;;18.00;;
28920;SDS011;16035;53.594;9.952;2024-03-02T01:50:32;31.13;;;17.30;;
28920;SDS011;16035;53.594;9.952;2024-03-02T01:52:32;29.88;;;16.58;;
28920;SDS011;16035;53.594;9.952;2024-03-02T01:54:33;32.07;;;18.07;;
28920;SDS011;16035;53.594;9.952;2024-03-02T01:56:34;35.22;;;17.58;;
28920;SDS011;16035;53.594;9.952;2024-03-02T01:58:34;32.73;;;17.73;;
28920;SDS011;16035;53.594;9.952;2024-03-02T02:00:36;34.88;;;18.15;;
28920;SDS011;16035;53.594;9.952;2024-03-02T02:02:37;34.65;;;18.70;;
28920;SDS011;16035;53.594;9.952;2024-03-02T02:04:37;37.00;;;18.47;;
28920;SDS011;16035;53.594;9.952;2024-03-02T02:06:37;36.53;;;18.63;;
28920;SDS011;16035;53.594;9.952;2024-03-02T02:08:37;36.10;;;19.00;;
28920;SDS011;16035;53.594;9.952;2024-03-02T02:10:38;32.20;;;18.20;;
28920;SDS011;16035;53.594;9.952;2024-03-02T02:12:38;33.43;;;17.70;;
28920;SDS011;16035;53.594;9.952;2024-03-02T02:14:39;39.85;;;19.40;;
28920;SDS011;16035;53.594;9.952;2024-03-02T02:16:47;33.38;;;18.00;;
28920;SDS011;16035;53.594;9.952;2024-03-02T02:18:47;33.30;;;18.47;;
28920;SDS011;16035;53.594;9.952;2024-03-02T02:20:48;37.33;;;19.87;;
28920;SDS011;16035;53.594;9.952;2024-03-02T02:23:00;37.60;;;19.43;;
28920;SDS011;16035;53.594;9.952;2024-03-02T02:25:02;40.58;;;20.90;;
28920;SDS011;16035;53.594;9.952;2024-03-02T02:27:02;38.47;;;19.57;;
28920;SDS011;16035;53.594;9.952;2024-03-02T02:29:02;39.07;;;18.70;;
28920;SDS011;16035;53.594;9.952;2024-03-02T02:31:03;34.07;;;18.57;;
28920;SDS011;16035;53.594;9.952;2024-03-02T02:33:03;37.53;;;18.73;;
28920;SDS011;16035;53.594;9.952;2024-03-02T02:35:04;40.53;;;20.53;;
28920;SDS011;16035;53.594;9.952;2024-03-02T02:37:04;33.40;;;19.42;;
28920;SDS011;16035;53.594;9.952;2024-03-02T02:39:05;40.77;;;20.03;;
28920;SDS011;16035;53.594;9.952;2024-03-02T02:41:10;34.72;;;18.95;;
28920;SDS011;16035;53.594;9.952;2024-03-02T02:43:11;37.00;;;19.53;;
28920;SDS011;16035;53.594;9.952;2024-03-02T02:45:12;35.40;;;19.00;;
28920;SDS011;16035;53.594;9.952;2024-03-02T02:47:14;39.47;;;19.77;;
28920;SDS011;16035;53.594;9.952;2024-03-02T02:49:14;37.07;;;19.23;;
28920;SDS011;16035;53.594;9.952;2024-03-02T02:51:15;37.53;;;20.23;;
28920;SDS011;16035;53.594;9.952;2024-03-02T02:55:16;36.93;;;19.30;;
28920;SDS011;16035;53.594;9.952;2024-03-02T02:57:17;35.33;;;18.37;;
28920;SDS011;16035;53.594;9.952;2024-03-02T02:59:17;35.43;;;18.40;;
28920;SDS011;16035;53.594;9.952;2024-03-02T03:01:17;34.50;;;18.67;;
28920;SDS011;16035;53.594;9.952;2024-03-02T03:03:18;36.07;;;18.53;;
28920;SDS011;16035;53.594;9.952;2024-03-02T03:05:18;32.33;;;19.27;;
28920;SDS011;16035;53.594;9.952;2024-03-02T03:07:19;36.37;;;18.63;;
28920;SDS011;16035;53.594;9.952;2024-03-02T03:09:19;40.63;;;19.70;;
28920;SDS011;16035;53.594;9.952;2024-03-02T03:11:19;39.17;;;18.67;;
28920;SDS011;16035;53.594;9.952;2024-03-02T03:13:20;39.07;;;20.17;;
28920;SDS011;16035;53.594;9.952;2024-03-02T03:15:20;38.80;;;18.73;;
28920;SDS011;16035;53.594;9.952;2024-03-02T03:17:23;37.27;;;19.13;;
28920;SDS011;16035;53.594;9.952;2024-03-02T03:19:23;35.47;;;18.50;;
28920;SDS011;16035;53.594;9.952;2024-03-02T03:21:24;39.87;;;19.83;;
28920;SDS011;16035;53.594;9.952;2024-03-02T03:23:24;39.30;;;18.80;;
28920;SDS011;16035;53.594;9.952;2024-03-02T03:27:27;37.27;;;19.57;;
28920;SDS011;16035;53.594;9.952;2024-03-02T03:29:27;36.60;;;18.63;;
28920;SDS011;16035;53.594;9.952;2024-03-02T03:31:28;39.30;;;18.40;;
28920;SDS011;16035;53.594;9.952;2024-03-02T03:33:29;38.30;;;19.60;;
28920;SDS011;16035;53.594;9.952;2024-03-02T03:35:29;31.47;;;19.13;;
28920;SDS011;16035;53.594;9.952;2024-03-02T03:37:30;36.07;;;19.10;;
28920;SDS011;16035;53.594;9.952;2024-03-02T03:39:33;32.33;;;18.05;;
28920;SDS011;16035;53.594;9.952;2024-03-02T03:43:35;29.70;;;16.38;;
28920;SDS011;16035;53.594;9.952;2024-03-02T03:45:35;41.10;;;18.35;;
28920;SDS011;16035;53.594;9.952;2024-03-02T03:47:36;34.30;;;17.20;;
28920;SDS011;16035;53.594;9.952;2024-03-02T03:49:36;32.80;;;19.17;;
28920;SDS011;16035;53.594;9.952;2024-03-02T03:51:36;36.37;;;17.93;;
28920;SDS011;16035;53.594;9.952;2024-03-02T03:53:37;37.07;;;19.77;;
28920;SDS011;16035;53.594;9.952;2024-03-02T03:55:37;35.10;;;18.67;;
28920;SDS011;16035;53.594;9.952;2024-03-02T03:57:37;31.23;;;17.77;;
28920;SDS011;16035;53.594;9.952;2024-03-02T03:59:38;34.87;;;17.60;;
28920;SDS011;16035;53.594;9.952;2024-03-02T04:01:38;33.47;;;17.30;;
28920;SDS011;16035;53.594;9.952;2024-03-02T04:03:38;37.73;;;18.73;;
28920;SDS011;16035;53.594;9.952;2024-03-02T04:05:39;33.57;;;18.00;;
28920;SDS011;16035;53.594;9.952;2024-03-02T04:07:39;40.30;;;17.57;;
28920;SDS011;16035;53.594;9.952;2024-03-02T04:09:43;33.08;;;16.60;;
28920;SDS011;16035;53.594;9.952;2024-03-02T04:11:43;37.63;;;18.60;;
28920;SDS011;16035;53.594;9.952;2024-03-02T04:13:43;33.53;;;19.00;;
28920;SDS011;16035;53.594;9.952;2024-03-02T04:15:43;37.53;;;19.83;;
28920;SDS011;16035;53.594;9.952;2024-03-02T04:17:44;33.13;;;17.20;;
28920;SDS011;16035;53.594;9.952;2024-03-02T04:19:44;33.07;;;18.40;;
28920;SDS011;16035;53.594;9.952;2024-03-02T04:21:45;28.70;;;17.87;;
28920;SDS011;16035;53.594;9.952;2024-03-02T04:23:45;37.10;;;17.87;;
28920;SDS011;16035;53.594;9.952;2024-03-02T04:25:45;35.03;;;18.83;;
28920;SDS011;16035;53.594;9.952;2024-03-02T04:27:46;36.63;;;18.30;;
28920;SDS011;16035;53.594;9.952;2024-03-02T04:29:46;31.08;;;17.35;;
28920;SDS011;16035;53.594;9.952;2024-03-02T04:31:47;35.33;;;17.93;;
28920;SDS011;16035;53.594;9.952;2024-03-02T04:33:47;37.40;;;17.93;;
28920;SDS011;16035;53.594;9.952;2024-03-02T04:35:47;33.13;;;17.87;;
28920;SDS011;16035;53.594;9.952;2024-03-02T04:37:48;34.67;;;18.07;;
28920;SDS011;16035;53.594;9.952;2024-03-02T04:39:48;28.43;;;15.23;;
28920;SDS011;16035;53.594;9.952;2024-03-02T04:41:49;35.20;;;18.40;;
28920;SDS011;16035;53.594;9.952;2024-03-02T04:43:49;36.87;;;18.60;;
28920;SDS011;16035;53.594;9.952;2024-03-02T04:45:49;36.83;;;18.37;;
28920;SDS011;16035;53.594;9.952;2024-03-02T04:47:49;37.43;;;17.20;;
28920;SDS011;16035;53.594;9.952;2024-03-02T04:49:50;35.23;;;19.33;;
28920;SDS011;16035;53.594;9.952;2024-03-02T04:51:50;33.80;;;18.17;;
28920;SDS011;16035;53.594;9.952;2024-03-02T04:53:51;30.17;;;17.20;;
28920;SDS011;16035;53.594;9.952;2024-03-02T04:55:51;34.07;;;17.47;;
28920;SDS011;16035;53.594;9.952;2024-03-02T04:58:24;34.75;;;17.13;;
28920;SDS011;16035;53.594;9.952;2024-03-02T05:00:24;35.03;;;18.80;;
28920;SDS011;16035;53.594;9.952;2024-03-02T05:02:24;32.13;;;17.10;;
28920;SDS011;16035;53.594;9.952;2024-03-02T05:04:24;40.80;;;19.53;;
28920;SDS011;16035;53.594;9.952;2024-03-02T05:06:25;30.33;;;16.23;;
28920;SDS011;16035;53.594;9.952;2024-03-02T05:08:25;31.13;;;16.83;;
28920;SDS011;16035;53.594;9.952;2024-03-02T05:10:25;34.13;;;17.60;;
28920;SDS011;16035;53.594;9.952;2024-03-02T05:12:26;33.00;;;17.80;;
28920;SDS011;16035;53.594;9.952;2024-03-02T05:14:45;32.80;;;17.85;;
28920;SDS011;16035;53.594;9.952;2024-03-02T05:16:46;31.17;;;17.27;;
28920;SDS011;16035;53.594;9.952;2024-03-02T05:18:46;31.37;;;17.13;;
28920;SDS011;16035;53.594;9.952;2024-03-02T05:20:46;23.43;;;13.20;;
28920;SDS011;16035;53.594;9.952;2024-03-02T05:22:47;30.50;;;16.92;;
28920;SDS011;16035;53.594;9.952;2024-03-02T05:24:49;35.97;;;17.98;;
28920;SDS011;16035;53.594;9.952;2024-03-02T05:26:49;33.10;;;17.70;;
28920;SDS011;16035;53.594;9.952;2024-03-02T05:28:50;31.40;;;17.43;;
28920;SDS011;16035;53.594;9.952;2024-03-02T05:30:50;31.50;;;18.07;;
28920;SDS011;16035;53.594;9.952;2024-03-02T05:32:50;27.50;;;16.07;;
28920;SDS011;16035;53.594;9.952;2024-03-02T05:34:51;36.73;;;18.53;;
28920;SDS011;16035;53.594;9.952;2024-03-02T05:36:51;31.50;;;17.37;;
28920;SDS011;16035;53.594;9.952;2024-03-02T05:38:51;31.90;;;16.87;;
28920;SDS011;16035;53.594;9.952;2024-03-02T05:40:52;30.70;;;16.57;;
28920;SDS011;16035;53.594;9.952;2024-03-02T05:42:52;31.30;;;17.90;;
28920;SDS011;16035;53.594;9.952;2024-03-02T05:44:53;29.47;;;16.07;;
28920;SDS011;16035;53.594;9.952;2024-03-02T05:46:53;28.70;;;17.17;;
28920;SDS011;16035;53.594;9.952;2024-03-02T05:48:53;30.00;;;17.03;;
28920;SDS011;16035;53.594;9.952;2024-03-02T05:50:54;32.53;;;17.17;;
28920;SDS011;16035;53.594;9.952;2024-03-02T05:52:54;29.53;;;16.53;;
28920;SDS011;16035;53.594;9.952;2024-03-02T05:54:56;29.45;;;15.93;;
28920;SDS011;16035;53.594;9.952;2024-03-02T05:56:56;29.27;;;16.07;;
28920;SDS011;16035;53.594;9.952;2024-03-02T05:58:56;29.67;;;16.00;;
28920;SDS011;16035;53.594;9.952;2024-03-02T06:01:12;32.83;;;17.13;;
28920;SDS011;16035;53.594;9.952;2024-03-02T06:03:13;29.43;;;17.70;;
28920;SDS011;16035;53.594;9.952;2024-03-02T06:05:13;31.07;;;17.70;;
28920;SDS011;16035;53.594;9.952;2024-03-02T06:07:15;32.95;;;16.92;;
28920;SDS011;16035;53.594;9.952;2024-03-02T06:09:15;33.57;;;17.37;;
28920;SDS011;16035;53.594;9.952;2024-03-02T06:11:16;23.67;;;13.48;;
28920;SDS011;16035;53.594;9.952;2024-03-02T06:13:17;29.48;;;16.70;;
28920;SDS011;16035;53.594;9.952;2024-03-02T06:15:17;29.53;;;16.13;;
28920;SDS011;16035;53.594;9.952;2024-03-02T06:17:18;33.58;;;17.17;;
28920;SDS011;16035;53.594;9.952;2024-03-02T06:19:19;37.93;;;16.87;;
28920;SDS011;16035;53.594;9.952;2024-03-02T06:21:19;29.40;;;15.73;;
28920;SDS011;16035;53.594;9.952;2024-03-02T06:23:20;32.30;;;15.70;;
28920;SDS011;16035;53.594;9.952;2024-03-02T06:25:20;34.83;;;17.23;;
28920;SDS011;16035;53.594;9.952;2024-03-02T06:27:21;29.97;;;16.90;;
28920;SDS011;16035;53.594;9.952;2024-03-02T06:29:21;33.27;;;16.37;;
28920;SDS011;16035;53.594;9.952;2024-03-02T06:31:21;30.93;;;16.73;;
28920;SDS011;16035;53.594;9.952;2024-03-02T06:33:22;27.80;;;15.90;;
28920;SDS011;16035;53.594;9.952;2024-03-02T06:35:22;33.63;;;17.53;;
28920;SDS011;16035;53.594;9.952;2024-03-02T06:37:22;31.20;;;15.90;;
28920;SDS011;16035;53.594;9.952;2024-03-02T06:39:23;33.17;;;16.80;;
28920;SDS011;16035;53.594;9.952;2024-03-02T06:41:23;30.53;;;15.53;;
28920;SDS011;16035;53.594;9.952;2024-03-02T06:43:23;29.40;;;15.57;;
28920;SDS011;16035;53.594;9.952;2024-03-02T06:45:24;26.60;;;15.40;;
28920;SDS011;16035;53.594;9.952;2024-03-02T06:47:27;29.80;;;16.60;;
28920;SDS011;16035;53.594;9.952;2024-03-02T06:49:27;28.60;;;12.77;;
28920;SDS011;16035;53.594;9.952;2024-03-02T06:51:28;31.23;;;16.07;;
28920;SDS011;16035;53.594;9.952;2024-03-02T06:53:28;27.93;;;15.90;;
28920;SDS011;16035;53.594;9.952;2024-03-02T06:55:30;28.13;;;14.68;;
28920;SDS011;16035;53.594;9.952;2024-03-02T06:57:30;29.50;;;16.55;;
28920;SDS011;16035;53.594;9.952;2024-03-02T06:59:31;34.57;;;16.63;;
28920;SDS011;16035;53.594;9.952;2024-03-02T07:01:31;27.10;;;15.43;;
28920;SDS011;16035;53.594;9.952;2024-03-02T07:03:31;26.33;;;15.27;;
28920;SDS011;16035;53.594;9.952;2024-03-02T07:05:32;30.52;;;16.10;;
28920;SDS011;16035;53.594;9.952;2024-03-02T07:07:33;27.00;;;15.70;;
28920;SDS011;16035;53.594;9.952;2024-03-02T07:11:35;26.90;;;14.57;;
28920;SDS011;16035;53.594;9.952;2024-03-02T07:13:35;29.77;;;16.60;;
28920;SDS011;16035;53.594;9.952;2024-03-02T07:15:36;31.40;;;16.80;;
28920;SDS011;16035;53.594;9.952;2024-03-02T07:18:02;28.27;;;15.95;;
28920;SDS011;16035;53.594;9.952;2024-03-02T07:20:04;27.13;;;15.05;;
28920;SDS011;16035;53.594;9.952;2024-03-02T07:22:07;26.35;;;15.60;;
28920;SDS011;16035;53.594;9.952;2024-03-02T07:24:11;26.27;;;15.73;;
28920;SDS011;16035;53.594;9.952;2024-03-02T07:26:13;23.55;;;14.80;;
28920;SDS011;16035;53.594;9.952;2024-03-02T07:30:15;28.43;;;16.07;;
28920;SDS011;16035;53.594;9.952;2024-03-02T07:32:18;27.63;;;14.90;;
28920;SDS011;16035;53.594;9.952;2024-03-02T07:34:18;27.20;;;15.77;;
28920;SDS011;16035;53.594;9.952;2024-03-02T07:36:19;29.47;;;15.40;;
28920;SDS011;16035;53.594;9.952;2024-03-02T07:38:19;28.37;;;16.17;;
28920;SDS011;16035;53.594;9.952;2024-03-02T07:40:20;31.83;;;17.07;;
28920;SDS011;16035;53.594;9.952;2024-03-02T07:42:20;30.20;;;15.63;;
28920;SDS011;16035;53.594;9.952;2024-03-02T07:44:21;31.13;;;16.57;;
28920;SDS011;16035;53.594;9.952;2024-03-02T07:46:21;31.00;;;15.43;;
28920;SDS011;16035;53.594;9.952;2024-03-02T07:48:21;28.03;;;16.07;;
28920;SDS011;16035;53.594;9.952;2024-03-02T07:50:22;29.47;;;16.50;;
28920;SDS011;16035;53.594;9.952;2024-03-02T07:52:22;29.70;;;15.73;;
28920;SDS011;16035;53.594;9.952;2024-03-02T07:54:22;29.97;;;16.67;;
28920;SDS011;16035;53.594;9.952;2024-03-02T07:56:23;29.07;;;14.97;;
28920;SDS011;16035;53.594;9.952;2024-03-02T07:58:23;30.27;;;15.60;;
28920;SDS011;16035;53.594;9.952;2024-03-02T08:00:23;29.40;;;15.93;;
28920;SDS011;16035;53.594;9.952;2024-03-02T08:02:25;30.35;;;16.17;;
28920;SDS011;16035;53.594;9.952;2024-03-02T08:04:26;24.93;;;15.30;;
28920;SDS011;16035;53.594;9.952;2024-03-02T08:06:27;30.57;;;16.13;;
28920;SDS011;16035;53.594;9.952;2024-03-02T08:08:27;31.83;;;16.10;;
28920;SDS011;16035;53.594;9.952;2024-03-02T08:10:28;27.77;;;15.37;;
28920;SDS011;16035;53.594;9.952;2024-03-02T08:12:28;29.67;;;15.70;;
28920;SDS011;16035;53.594;9.952;2024-03-02T08:14:29;26.07;;;16.00;;
28920;SDS011;16035;53.594;9.952;2024-03-02T08:16:29;28.77;;;17.77;;
28920;SDS011;16035;53.594;9.952;2024-03-02T08:18:29;30.17;;;17.60;;
28920;SDS011;16035;53.594;9.952;2024-03-02T08:20:30;28.17;;;15.57;;
28920;SDS011;16035;53.594;9.952;2024-03-02T08:22:31;28.75;;;15.82;;
28920;SDS011;16035;53.594;9.952;2024-03-02T08:24:31;26.13;;;16.43;;
28920;SDS011;16035;53.594;9.952;2024-03-02T08:26:32;31.07;;;15.53;;
28920;SDS011;16035;53.594;9.952;2024-03-02T08:28:33;30.50;;;15.03;;
28920;SDS011;16035;53.594;9.952;2024-03-02T08:30:34;25.80;;;15.15;;
28920;SDS011;16035;53.594;9.952;2024-03-02T08:32:34;28.50;;;15.80;;
28920;SDS011;16035;53.594;9.952;2024-03-02T08:34:34;30.57;;;16.80;;
28920;SDS011;16035;53.594;9.952;2024-03-02T08:36:35;27.50;;;15.73;;
28920;SDS011;16035;53.594;9.952;2024-03-02T08:38:36;26.90;;;15.20;;
28920;SDS011;16035;53.594;9.952;2024-03-02T08:40:36;26.90;;;15.37;;
28920;SDS011;16035;53.594;9.952;2024-03-02T08:42:37;31.50;;;16.37;;
28920;SDS011;16035;53.594;9.952;2024-03-02T08:44:37;24.30;;;14.53;;
28920;SDS011;16035;53.594;9.952;2024-03-02T08:46:40;29.30;;;15.87;;
28920;SDS011;16035;53.594;9.952;2024-03-02T08:48:41;32.03;;;16.35;;
28920;SDS011;16035;53.594;9.952;2024-03-02T08:50:41;26.57;;;15.20;;
28920;SDS011;16035;53.594;9.952;2024-03-02T08:52:42;26.27;;;16.07;;
28920;SDS011;16035;53.594;9.952;2024-03-02T08:54:43;23.48;;;14.63;;
28920;SDS011;16035;53.594;9.952;2024-03-02T08:56:43;27.63;;;15.37;;
28920;SDS011;16035;53.594;9.952;2024-03-02T08:58:44;30.85;;;16.42;;
28920;SDS011;16035;53.594;9.952;2024-03-02T09:00:44;28.40;;;16.13;;
28920;SDS011;16035;53.594;9.952;2024-03-02T09:02:46;25.10;;;15.43;;
28920;SDS011;16035;53.594;9.952;2024-03-02T09:04:47;25.47;;;15.80;;
28920;SDS011;16035;53.594;9.952;2024-03-02T09:06:47;32.20;;;16.03;;
28920;SDS011;16035;53.594;9.952;2024-03-02T09:08:48;25.60;;;14.90;;
28920;SDS011;16035;53.594;9.952;2024-03-02T09:10:49;24.40;;;14.70;;
28920;SDS011;16035;53.594;9.952;2024-03-02T09:12:49;20.83;;;13.43;;
28920;SDS011;16035;53.594;9.952;2024-03-02T09:14:50;25.73;;;15.30;;
28920;SDS011;16035;53.594;9.952;2024-03-02T09:16:50;23.47;;;14.80;;
28920;SDS011;16035;53.594;9.952;2024-03-02T09:18:50;24.40;;;14.53;;
28920;SDS011;16035;53.594;9.952;2024-03-02T09:20:51;24.80;;;14.13;;
28920;SDS011;16035;53.594;9.952;2024-03-02T09:22:51;27.07;;;13.50;;
28920;SDS011;16035;53.594;9.952;2024-03-02T09:24:51;23.93;;;14.67;;
28920;SDS011;16035;53.594;9.952;2024-03-02T09:26:52;24.93;;;14.20;;
28920;SDS011;16035;53.594;9.952;2024-03-02T09:28:52;26.60;;;14.83;;
28920;SDS011;16035;53.594;9.952;2024-03-02T09:30:52;22.57;;;13.97;;
28920;SDS011;16035;53.594;9.952;2024-03-02T09:32:53;23.30;;;14.27;;
28920;SDS011;16035;53.594;9.952;2024-03-02T09:34:53;20.33;;;13.83;;
28920;SDS011;16035;53.594;9.952;2024-03-02T09:36:55;23.65;;;13.93;;
28920;SDS011;16035;53.594;9.952;2024-03-02T09:38:56;22.67;;;14.07;;
28920;SDS011;16035;53.594;9.952;2024-03-02T09:40:56;19.77;;;13.70;;
28920;SDS011;16035;53.594;9.952;2024-03-02T09:42:56;19.73;;;12.73;;
28920;SDS011;16035;53.594;9.952;2024-03-02T09:44:57;20.63;;;13.20;;
28920;SDS011;16035;53.594;9.952;2024-03-02T09:46:58;19.13;;;13.18;;
28920;SDS011;16035;53.594;9.952;2024-03-02T09:48:58;19.20;;;13.33;;
28920;SDS011;16035;53.594;9.952;2024-03-02T09:50:58;19.70;;;12.97;;
28920;SDS011;16035;53.594;9.952;2024-03-02T09:53:00;17.25;;;12.60;;
28920;SDS011;16035;53.594;9.952;2024-03-02T09:55:02;16.67;;;12.55;;
28920;SDS011;16035;53.594;9.952;2024-03-02T09:57:02;19.73;;;13.43;;
28920;SDS011;16035;53.594;9.952;2024-03-02T09:59:03;17.63;;;12.93;;
28920;SDS011;16035;53.594;9.952;2024-03-02T10:01:07;21.55;;;14.15;;
28920;SDS011;16035;53.594;9.952;2024-03-02T10:03:11;19.75;;;14.32;;
28920;SDS011;16035;53.594;9.952;2024-03-02T10:05:12;19.67;;;12.98;;
28920;SDS011;16035;53.594;9.952;2024-03-02T10:07:16;17.33;;;13.23;;
28920;SDS011;16035;53.594;9.952;2024-03-02T10:09:27;18.73;;;13.32;;
28920;SDS011;16035;53.594;9.952;2024-03-02T10:13:34;18.70;;;12.38;;
28920;SDS011;16035;53.594;9.952;2024-03-02T10:15:35;19.02;;;13.05;;
28920;SDS011;16035;53.594;9.952;2024-03-02T10:17:40;19.13;;;12.63;;
28920;SDS011;16035;53.594;9.952;2024-03-02T10:19:40;19.20;;;12.30;;
28920;SDS011;16035;53.594;9.952;2024-03-02T10:21:41;16.17;;;11.63;;
28920;SDS011;16035;53.594;9.952;2024-03-02T10:23:42;17.50;;;12.38;;
28920;SDS011;16035;53.594;9.952;2024-03-02T10:25:43;19.87;;;11.87;;
28920;SDS011;16035;53.594;9.952;2024-03-02T10:29:47;17.33;;;11.50;;
28920;SDS011;16035;53.594;9.952;2024-03-02T10:31:48;16.35;;;11.50;;
28920;SDS011;16035;53.594;9.952;2024-03-02T10:33:48;16.00;;;11.13;;
28920;SDS011;16035;53.594;9.952;2024-03-02T10:35:49;16.97;;;11.13;;
28920;SDS011;16035;53.594;9.952;2024-03-02T10:39:51;16.97;;;11.03;;
28920;SDS011;16035;53.594;9.952;2024-03-02T10:41:52;18.85;;;11.52;;
28920;SDS011;16035;53.594;9.952;2024-03-02T10:43:54;18.02;;;11.45;;
28920;SDS011;16035;53.594;9.952;2024-03-02T10:45:59;16.55;;;10.90;;
28920;SDS011;16035;53.594;9.952;2024-03-02T10:48:00;18.00;;;11.77;;
28920;SDS011;16035;53.594;9.952;2024-03-02T10:50:02;24.55;;;11.55;;
28920;SDS011;16035;53.594;9.952;2024-03-02T10:52:08;16.83;;;10.50;;
28920;SDS011;16035;53.594;9.952;2024-03-02T10:54:09;18.65;;;10.07;;
28920;SDS011;16035;53.594;9.952;2024-03-02T10:56:09;18.30;;;10.83;;
28920;SDS011;16035;53.594;9.952;2024-03-02T10:58:12;17.92;;;10.85;;
28920;SDS011;16035;53.594;9.952;2024-03-02T11:00:15;14.80;;;9.93;;
28920;SDS011;16035;53.594;9.952;2024-03-02T11:02:15;17.83;;;10.03;;
28920;SDS011;16035;53.594;9.952;2024-03-02T11:04:18;19.75;;;10.85;;
28920;SDS011;16035;53.594;9.952;2024-03-02T11:06:19;17.27;;;10.02;;
28920;SDS011;16035;53.594;9.952;2024-03-02T11:08:21;15.50;;;10.10;;
28920;SDS011;16035;53.594;9.952;2024-03-02T11:10:25;18.27;;;10.02;;
28920;SDS011;16035;53.594;9.952;2024-03-02T11:14:31;16.95;;;9.55;;
28920;SDS011;16035;53.594;9.952;2024-03-02T11:16:36;15.40;;;8.85;;
28920;SDS011;16035;53.594;9.952;2024-03-02T11:18:38;13.05;;;8.35;;
28920;SDS011;16035;53.594;9.952;2024-03-02T11:20:40;15.30;;;10.00;;
28920;SDS011;16035;53.594;9.952;2024-03-02T11:22:41;14.27;;;8.88;;
28920;SDS011;16035;53.594;9.952;2024-03-02T11:24:50;16.38;;;9.55;;
28920;SDS011;16035;53.594;9.952;2024-03-02T11:26:52;14.45;;;9.23;;
28920;SDS011;16035;53.594;9.952;2024-03-02T11:28:53;13.77;;;8.73;;
28920;SDS011;16035;53.594;9.952;2024-03-02T11:30:53;15.10;;;9.15;;
28920;SDS011;16035;53.594;9.952;2024-03-02T11:32:55;14.67;;;8.93;;
28920;SDS011;16035;53.594;9.952;2024-03-02T11:34:56;13.60;;;7.93;;
28920;SDS011;16035;53.594;9.952;2024-03-02T11:36:57;11.63;;;8.17;;
28920;SDS011;16035;53.594;9.952;2024-03-02T11:38:59;13.65;;;8.27;;
28920;SDS011;16035;53.594;9.952;2024-03-02T11:41:03;12.60;;;8.50;;
28920;SDS011;16035;53.594;9.952;2024-03-02T11:43:08;15.90;;;8.10;;
28920;SDS011;16035;53.594;9.952;2024-03-02T11:45:09;14.20;;;8.57;;
28920;SDS011;16035;53.594;9.952;2024-03-02T11:47:10;14.77;;;8.73;;
28920;SDS011;16035;53.594;9.952;2024-03-02T11:49:14;12.32;;;8.02;;
28920;SDS011;16035;53.594;9.952;2024-03-02T11:51:15;12.73;;;7.95;;
28920;SDS011;16035;53.594;9.952;2024-03-02T11:53:17;48.88;;;27.17;;
28920;SDS011;16035;53.594;9.952;2024-03-02T11:55:18;14.65;;;9.73;;
28920;SDS011;16035;53.594;9.952;2024-03-02T11:59:22;12.52;;;8.07;;
28920;SDS011;16035;53.594;9.952;2024-03-02T12:01:24;11.50;;;6.63;;
28920;SDS011;16035;53.594;9.952;2024-03-02T12:03:25;11.87;;;6.90;;
28920;SDS011;16035;53.594;9.952;2024-03-02T12:05:26;12.70;;;7.63;;
28920;SDS011;16035;53.594;9.952;2024-03-02T12:07:27;9.80;;;6.78;;
28920;SDS011;16035;53.594;9.952;2024-03-02T12:09:27;13.00;;;6.87;;
28920;SDS011;16035;53.594;9.952;2024-03-02T12:11:28;10.02;;;6.55;;
28920;SDS011;16035;53.594;9.952;2024-03-02T12:13:28;10.33;;;7.17;;
28920;SDS011;16035;53.594;9.952;2024-03-02T12:15:30;11.17;;;6.87;;